createdAt,value
2023-02-11T00:00:41.551Z,29.33
2023-02-11T00:03:08.397Z,24.83
2023-02-11T00:05:35.185Z,28.47
2023-02-11T00:08:02.697Z,28.10
2023-02-11T00:10:29.256Z,21.37
2023-02-11T00:12:57.257Z,26.43
2023-02-11T00:15:23.844Z,24.70
2023-02-11T00:17:51.481Z,24.50
2023-02-11T00:20:18.039Z,21.83
2023-02-11T00:22:46.015Z,27.47
2023-02-11T00:25:13.826Z,19.47
2023-02-11T00:27:44.681Z,20.63
2023-02-11T00:30:20.032Z,19.97
2023-02-11T00:33:07.808Z,25.33
2023-02-11T00:35:37.447Z,24.60
2023-02-11T00:38:04.000Z,21.33
2023-02-11T00:40:49.057Z,23.47
2023-02-11T00:43:27.612Z,22.43
2023-02-11T00:49:31.702Z,21.93
2023-02-11T00:55:28.896Z,26.07
2023-02-11T01:01:42.728Z,22.67
2023-02-11T01:04:12.970Z,24.07
2023-02-11T01:06:39.442Z,28.97
2023-02-11T01:09:05.984Z,34.03
2023-02-11T01:11:32.484Z,23.00
2023-02-11T01:13:59.016Z,29.53
2023-02-11T01:16:25.613Z,27.27
2023-02-11T01:18:52.134Z,29.63
2023-02-11T01:21:18.998Z,31.60
2023-02-11T01:23:45.471Z,31.43
2023-02-11T01:26:11.951Z,30.40
2023-02-11T01:28:38.544Z,37.03
2023-02-11T01:31:05.408Z,35.93
2023-02-11T01:33:31.940Z,35.30
2023-02-11T01:36:05.790Z,40.27
2023-02-11T01:38:33.684Z,35.50
2023-02-11T01:41:03.138Z,35.03
2023-02-11T01:43:33.021Z,51.77
2023-02-11T01:46:02.172Z,38.20
2023-02-11T01:48:39.505Z,40.67
2023-02-11T01:51:27.064Z,43.13
2023-02-11T01:54:12.690Z,43.33
2023-02-11T01:57:01.611Z,41.63
2023-02-11T01:59:33.621Z,43.87
2023-02-11T02:02:03.643Z,54.20
2023-02-11T02:04:34.912Z,36.90
2023-02-11T02:07:09.737Z,45.33
2023-02-11T02:09:42.720Z,49.23
2023-02-11T02:12:09.363Z,43.63
2023-02-11T02:14:40.633Z,40.13
2023-02-11T02:17:30.098Z,42.20
2023-02-11T02:20:19.272Z,39.57
2023-02-11T02:23:10.143Z,49.53
2023-02-11T02:26:15.266Z,41.70
2023-02-11T02:28:47.480Z,46.53
2023-02-11T02:31:25.376Z,40.10
2023-02-11T02:34:02.122Z,48.83
2023-02-11T02:36:43.643Z,41.13
2023-02-11T02:39:22.646Z,45.80
2023-02-11T02:41:50.551Z,45.27
2023-02-11T02:44:18.291Z,40.23
2023-02-11T02:46:44.887Z,44.80
2023-02-11T02:49:13.689Z,53.00
2023-02-11T02:51:57.139Z,46.07
2023-02-11T02:54:59.009Z,38.47
2023-02-11T02:58:03.031Z,39.73
2023-02-11T03:00:35.570Z,42.23
2023-02-11T03:03:22.646Z,39.93
2023-02-11T03:05:57.089Z,31.93
2023-02-11T03:08:34.847Z,39.37
2023-02-11T03:11:02.438Z,35.63
2023-02-11T03:13:33.801Z,35.63
2023-02-11T03:16:11.613Z,43.93
2023-02-11T03:18:40.352Z,37.97
2023-02-11T03:21:08.464Z,41.10
2023-02-11T03:23:39.230Z,43.07
2023-02-11T03:26:18.699Z,49.47
2023-02-11T03:29:10.628Z,33.97
2023-02-11T03:31:42.246Z,39.47
2023-02-11T03:34:19.406Z,43.97
2023-02-11T03:37:00.401Z,36.40
2023-02-11T03:39:35.166Z,44.10
2023-02-11T03:42:03.369Z,30.07
2023-02-11T03:44:33.424Z,41.33
2023-02-11T03:47:01.214Z,40.17
2023-02-11T03:49:28.841Z,35.73
2023-02-11T03:51:56.130Z,32.07
2023-02-11T03:54:28.877Z,37.97
2023-02-11T03:56:57.829Z,35.43
2023-02-11T03:59:24.726Z,36.40
2023-02-11T04:01:54.749Z,28.73
2023-02-11T04:04:21.375Z,40.43
2023-02-11T04:06:47.866Z,41.40
2023-02-11T04:09:15.132Z,39.83
2023-02-11T04:11:43.971Z,36.50
2023-02-11T04:14:10.620Z,36.63
2023-02-11T04:16:37.367Z,35.90
2023-02-11T04:19:04.187Z,38.07
2023-02-11T04:21:30.709Z,37.80
2023-02-11T04:23:57.379Z,32.63
2023-02-11T04:26:23.933Z,37.53
2023-02-11T04:28:52.795Z,41.43
2023-02-11T04:31:19.588Z,40.43
2023-02-11T04:33:46.413Z,37.33
2023-02-11T04:36:13.168Z,33.80
2023-02-11T04:38:39.695Z,34.10
2023-02-11T04:41:06.231Z,42.60
2023-02-11T04:43:32.751Z,33.67
2023-02-11T04:45:59.407Z,33.70
2023-02-11T04:48:26.347Z,42.43
2023-02-11T04:50:53.999Z,41.73
2023-02-11T04:53:21.242Z,41.50
2023-02-11T04:55:51.934Z,42.00
2023-02-11T04:58:19.802Z,42.43
2023-02-11T05:00:46.605Z,39.30
2023-02-11T05:03:13.584Z,50.13
2023-02-11T05:05:41.047Z,42.23
2023-02-11T05:08:08.728Z,45.53
2023-02-11T05:10:35.416Z,45.57
2023-02-11T05:13:01.901Z,47.20
2023-02-11T05:15:28.551Z,58.30
2023-02-11T05:17:55.603Z,41.37
2023-02-11T05:20:22.516Z,58.07
2023-02-11T05:22:49.072Z,48.73
2023-02-11T05:25:15.654Z,50.83
2023-02-11T05:27:42.219Z,43.10
2023-02-11T05:30:09.812Z,51.23
2023-02-11T05:32:36.403Z,50.93
2023-02-11T05:35:02.945Z,46.40
2023-02-11T05:37:29.484Z,44.73
2023-02-11T05:39:56.045Z,52.03
2023-02-11T05:42:22.573Z,41.93
2023-02-11T05:44:50.626Z,44.13
2023-02-11T05:47:17.301Z,37.70
2023-02-11T05:49:43.893Z,49.57
2023-02-11T05:52:10.403Z,43.23
2023-02-11T05:54:36.993Z,37.77
2023-02-11T05:57:03.808Z,50.57
2023-02-11T05:59:30.450Z,43.70
2023-02-11T06:01:56.924Z,34.67
2023-02-11T06:04:23.449Z,45.20
2023-02-11T06:06:50.100Z,40.87
2023-02-11T06:09:16.663Z,36.97
2023-02-11T06:11:43.251Z,39.27
2023-02-11T06:14:11.043Z,38.43
2023-02-11T06:16:37.810Z,43.33
2023-02-11T06:19:04.310Z,32.07
2023-02-11T06:21:42.845Z,42.00
2023-02-11T06:24:10.282Z,35.03
2023-02-11T06:26:37.002Z,42.03
2023-02-11T06:29:03.554Z,38.77
2023-02-11T06:31:30.467Z,43.63
2023-02-11T06:33:57.129Z,38.33
2023-02-11T06:36:23.715Z,37.77
2023-02-11T06:38:50.965Z,36.30
2023-02-11T06:41:20.208Z,41.77
2023-02-11T06:43:47.140Z,33.47
2023-02-11T06:46:13.777Z,31.57
2023-02-11T06:48:41.626Z,33.23
2023-02-11T06:51:10.399Z,39.73
2023-02-11T06:53:40.708Z,42.13
2023-02-11T06:56:10.240Z,38.20
2023-02-11T06:58:37.580Z,36.90
2023-02-11T07:01:06.766Z,38.43
2023-02-11T07:03:36.143Z,36.03
2023-02-11T07:06:04.595Z,29.47
2023-02-11T07:08:32.634Z,39.33
2023-02-11T07:10:59.107Z,36.20
2023-02-11T07:13:25.748Z,38.90
2023-02-11T07:15:52.615Z,38.50
2023-02-11T07:18:19.276Z,33.00
2023-02-11T07:20:45.799Z,35.87
2023-02-11T07:23:12.323Z,36.03
2023-02-11T07:25:38.802Z,46.40
2023-02-11T07:28:05.536Z,39.97
2023-02-11T07:30:32.131Z,39.00
2023-02-11T07:32:58.707Z,34.07
2023-02-11T07:35:25.301Z,39.93
2023-02-11T07:37:51.797Z,35.90
2023-02-11T07:40:18.423Z,43.97
2023-02-11T07:42:44.883Z,34.90
2023-02-11T07:45:11.504Z,38.60
2023-02-11T07:47:38.533Z,28.23
2023-02-11T07:50:05.317Z,36.73
2023-02-11T07:52:31.925Z,36.70
2023-02-11T07:54:58.421Z,33.80
2023-02-11T07:57:24.919Z,36.40
2023-02-11T07:59:51.496Z,43.00
2023-02-11T08:02:18.117Z,28.30
2023-02-11T08:04:46.781Z,36.33
2023-02-11T08:07:17.535Z,35.03
2023-02-11T08:09:44.442Z,33.73
2023-02-11T08:12:11.130Z,40.70
2023-02-11T08:14:37.670Z,42.70
2023-02-11T08:17:04.253Z,39.77
2023-02-11T08:19:31.602Z,33.07
2023-02-11T08:22:00.652Z,38.43
2023-02-11T08:24:27.084Z,38.93
2023-02-11T08:26:53.581Z,37.87
2023-02-11T08:29:20.052Z,38.17
2023-02-11T08:31:48.082Z,40.37
2023-02-11T08:34:18.275Z,43.07
2023-02-11T08:36:45.515Z,36.83
2023-02-11T08:39:19.645Z,35.87
2023-02-11T08:41:54.230Z,37.17
2023-02-11T08:44:21.417Z,31.77
2023-02-11T08:46:48.185Z,28.53
2023-02-11T08:49:15.072Z,29.77
2023-02-11T08:51:41.629Z,37.00
2023-02-11T08:54:09.880Z,30.83
2023-02-11T08:56:37.901Z,37.50
2023-02-11T08:59:04.835Z,39.13
2023-02-11T09:01:32.610Z,29.40
2023-02-11T09:03:59.776Z,37.70
2023-02-11T09:06:27.664Z,36.13
2023-02-11T09:08:56.665Z,29.50
2023-02-11T09:11:28.721Z,33.03
2023-02-11T09:13:55.223Z,35.33
2023-02-11T09:16:24.736Z,31.57
2023-02-11T09:18:51.677Z,33.60
2023-02-11T09:21:19.182Z,37.77
2023-02-11T09:23:47.724Z,33.03
2023-02-11T09:26:18.606Z,30.60
2023-02-11T09:28:45.144Z,36.43
2023-02-11T09:31:14.950Z,27.90
2023-02-11T09:33:48.016Z,41.03
2023-02-11T09:36:20.544Z,35.63
2023-02-11T09:38:47.802Z,32.60
2023-02-11T09:41:23.568Z,36.00
2023-02-11T09:43:57.647Z,32.67
2023-02-11T09:46:25.894Z,38.17
2023-02-11T09:48:54.242Z,34.50
2023-02-11T09:51:24.820Z,35.17
2023-02-11T09:53:54.500Z,37.87
2023-02-11T09:56:20.973Z,37.53
2023-02-11T09:58:47.476Z,36.47
2023-02-11T10:01:21.809Z,39.90
2023-02-11T10:04:14.714Z,32.07
2023-02-11T10:06:51.630Z,28.60
2023-02-11T10:09:24.464Z,34.77
2023-02-11T10:12:15.851Z,24.60
2023-02-11T10:15:03.872Z,25.87
2023-02-11T10:18:03.653Z,24.30
2023-02-11T10:20:44.267Z,28.60
2023-02-11T10:23:16.846Z,24.00
2023-02-11T10:25:45.568Z,29.47
2023-02-11T10:28:35.151Z,24.43
2023-02-11T10:31:26.334Z,23.67
2023-02-11T10:34:09.239Z,22.23
2023-02-11T10:36:38.459Z,25.90
2023-02-11T10:39:15.223Z,22.80
2023-02-11T10:41:47.875Z,18.30
2023-02-11T10:44:32.400Z,26.97
2023-02-11T10:47:05.333Z,20.67
2023-02-11T10:49:43.152Z,20.43
2023-02-11T10:52:21.341Z,16.07
2023-02-11T10:54:58.002Z,25.63
2023-02-11T10:57:29.272Z,24.00
2023-02-11T11:00:03.893Z,22.07
2023-02-11T11:02:36.010Z,29.60
2023-02-11T11:05:32.638Z,20.87
2023-02-11T11:08:01.264Z,25.57
2023-02-11T11:10:44.048Z,24.03
2023-02-11T11:13:24.819Z,23.30
2023-02-11T11:16:14.486Z,18.50
2023-02-11T11:18:42.564Z,19.43
2023-02-11T11:21:30.680Z,19.60
2023-02-11T11:24:01.723Z,15.83
2023-02-11T11:26:40.027Z,14.50
2023-02-11T11:29:14.568Z,22.37
2023-02-11T11:31:54.963Z,17.00
2023-02-11T11:34:56.174Z,22.33
2023-02-11T11:37:32.586Z,23.30
2023-02-11T11:40:22.113Z,19.27
2023-02-11T11:43:04.926Z,22.00
2023-02-11T11:45:31.733Z,18.57
2023-02-11T11:48:35.113Z,15.10
2023-02-11T11:51:05.161Z,18.67
2023-02-11T11:53:43.690Z,10.73
2023-02-11T11:56:16.810Z,13.97
2023-02-11T11:58:43.506Z,14.03
2023-02-11T12:01:16.131Z,9.30
2023-02-11T12:03:48.798Z,13.93
2023-02-11T12:06:39.614Z,10.57
2023-02-11T12:09:23.587Z,14.93
2023-02-11T12:12:02.164Z,11.80
2023-02-11T12:15:04.675Z,11.93
2023-02-11T12:17:50.868Z,13.60
2023-02-11T12:20:46.682Z,8.53
2023-02-11T12:23:26.180Z,6.97
2023-02-11T12:25:55.731Z,8.60
2023-02-11T12:28:31.333Z,10.10
2023-02-11T12:31:31.886Z,8.17
2023-02-11T12:34:23.226Z,9.97
2023-02-11T12:37:23.683Z,8.43
2023-02-11T12:40:12.804Z,10.10
2023-02-11T12:43:09.116Z,10.60
2023-02-11T12:46:13.622Z,6.80
2023-02-11T12:49:12.981Z,12.30
2023-02-11T12:51:45.919Z,9.50
2023-02-11T12:54:23.907Z,9.57
2023-02-11T12:57:08.068Z,6.27
2023-02-11T12:59:56.352Z,10.17
2023-02-11T13:03:04.792Z,9.43
2023-02-11T13:05:37.619Z,7.33
2023-02-11T13:08:42.480Z,12.33
2023-02-11T13:11:16.203Z,10.83
2023-02-11T13:13:45.803Z,11.73
2023-02-11T13:16:33.955Z,12.20
2023-02-11T13:19:19.353Z,10.00
2023-02-11T13:22:01.189Z,9.60
2023-02-11T13:24:49.652Z,8.73
2023-02-11T13:27:34.985Z,9.17
2023-02-11T13:30:32.992Z,6.90
2023-02-11T13:33:02.442Z,7.87
2023-02-11T13:35:40.041Z,7.47
2023-02-11T13:38:18.168Z,6.73
2023-02-11T13:40:45.175Z,6.80
2023-02-11T13:43:22.999Z,10.07
2023-02-11T13:45:50.624Z,5.40
2023-02-11T13:48:24.066Z,5.23
2023-02-11T13:50:54.017Z,5.27
2023-02-11T13:53:20.818Z,4.37
2023-02-11T13:55:50.016Z,4.33
2023-02-11T13:58:28.642Z,3.43
2023-02-11T14:00:55.391Z,4.27
2023-02-11T14:03:54.905Z,8.67
2023-02-11T14:06:49.050Z,4.13
2023-02-11T14:09:17.281Z,4.10
2023-02-11T14:11:52.566Z,6.20
2023-02-11T14:14:21.887Z,5.70
2023-02-11T14:17:06.811Z,5.20
2023-02-11T14:19:43.603Z,11.47
2023-02-11T14:22:18.435Z,6.83
2023-02-11T14:24:59.800Z,7.97
2023-02-11T14:27:45.049Z,8.03
2023-02-11T14:31:02.880Z,7.73
2023-02-11T14:33:50.620Z,12.97
2023-02-11T14:36:43.832Z,7.23
2023-02-11T14:39:22.853Z,6.70
2023-02-11T14:41:51.119Z,7.97
2023-02-11T14:44:23.688Z,5.33
2023-02-11T14:46:53.365Z,7.33
2023-02-11T14:49:27.596Z,7.77
2023-02-11T14:51:57.656Z,8.67
2023-02-11T14:54:25.367Z,8.53
2023-02-11T14:57:15.896Z,11.20
2023-02-11T14:59:59.366Z,13.00
2023-02-11T15:02:32.405Z,10.13
2023-02-11T15:05:22.537Z,11.00
2023-02-11T15:07:54.443Z,11.70
2023-02-11T15:10:30.034Z,9.60
2023-02-11T15:12:56.668Z,13.57
2023-02-11T15:15:23.367Z,11.40
2023-02-11T15:17:50.190Z,10.40
2023-02-11T15:20:22.924Z,8.80
2023-02-11T15:22:52.263Z,7.70
2023-02-11T15:25:20.157Z,11.93
2023-02-11T15:27:49.244Z,10.20
2023-02-11T15:30:21.779Z,7.97
2023-02-11T15:32:58.654Z,6.17
2023-02-11T15:35:38.387Z,7.40
2023-02-11T15:38:04.978Z,8.40
2023-02-11T15:40:34.163Z,8.63
2023-02-11T15:43:10.889Z,7.23
2023-02-11T15:45:43.101Z,11.73
2023-02-11T15:48:16.390Z,7.27
2023-02-11T15:50:48.094Z,9.87
2023-02-11T15:53:27.020Z,11.77
2023-02-11T15:56:02.052Z,9.90
2023-02-11T15:58:28.681Z,9.50
2023-02-11T16:00:59.765Z,10.90
2023-02-11T16:03:32.308Z,13.10
2023-02-11T16:06:18.913Z,8.30
2023-02-11T16:09:05.170Z,11.47
2023-02-11T16:11:55.906Z,10.57
2023-02-11T16:14:31.712Z,12.90
2023-02-11T16:17:11.402Z,9.53
2023-02-11T16:19:44.308Z,9.23
2023-02-11T16:22:14.351Z,11.60
2023-02-11T16:24:40.921Z,9.13
2023-02-11T16:27:30.331Z,8.50
2023-02-11T16:29:57.829Z,8.47
2023-02-11T16:32:28.896Z,10.67
2023-02-11T16:35:00.733Z,7.30
2023-02-11T16:37:27.319Z,6.40
2023-02-11T16:39:54.899Z,10.67
2023-02-11T16:42:21.416Z,6.40
2023-02-11T16:44:47.843Z,8.37
2023-02-11T16:47:20.974Z,6.20
2023-02-11T16:49:47.928Z,8.87
2023-02-11T16:52:15.871Z,6.87
2023-02-11T16:54:42.685Z,9.07
2023-02-11T16:57:14.138Z,8.57
2023-02-11T16:59:40.589Z,10.60
2023-02-11T17:02:14.212Z,9.93
2023-02-11T17:04:40.857Z,9.23
2023-02-11T17:07:07.773Z,9.10
2023-02-11T17:09:34.301Z,6.70
2023-02-11T17:12:01.399Z,8.90
2023-02-11T17:14:27.868Z,6.57
2023-02-11T17:16:54.338Z,9.73
2023-02-11T17:19:21.828Z,11.17
2023-02-11T17:21:51.134Z,10.87
2023-02-11T17:24:18.450Z,11.33
2023-02-11T17:26:45.411Z,16.70
2023-02-11T17:29:14.740Z,11.77
2023-02-11T17:31:41.442Z,9.90
2023-02-11T17:34:08.340Z,9.17
2023-02-11T17:36:35.013Z,8.37
2023-02-11T17:39:01.604Z,12.80
2023-02-11T17:41:28.622Z,8.73
2023-02-11T17:43:58.278Z,9.60
2023-02-11T17:46:25.051Z,7.93
2023-02-11T17:48:53.170Z,11.30
2023-02-11T17:51:39.275Z,7.57
2023-02-11T17:54:08.166Z,7.93
2023-02-11T17:56:35.965Z,8.60
2023-02-11T17:59:03.260Z,11.47
2023-02-11T18:01:31.350Z,13.13
2023-02-11T18:03:57.880Z,12.37
2023-02-11T18:06:25.994Z,11.73
2023-02-11T18:08:52.483Z,12.20
2023-02-11T18:11:19.002Z,9.90
2023-02-11T18:13:45.594Z,12.30
2023-02-11T18:16:15.945Z,10.03
2023-02-11T18:18:43.318Z,9.33
2023-02-11T18:21:14.650Z,12.87
2023-02-11T18:23:43.480Z,9.97
2023-02-11T18:26:11.919Z,10.37
2023-02-11T18:28:39.783Z,9.60
2023-02-11T18:31:08.090Z,10.67
2023-02-11T18:33:39.107Z,11.23
2023-02-11T18:36:10.502Z,12.40
2023-02-11T18:38:38.215Z,9.33
2023-02-11T18:41:05.247Z,12.60
2023-02-11T18:43:33.747Z,10.93
2023-02-11T18:46:01.537Z,9.10
2023-02-11T18:48:31.165Z,12.93
2023-02-11T18:50:57.611Z,14.57
2023-02-11T18:53:25.103Z,8.73
2023-02-11T18:55:52.718Z,9.77
2023-02-11T18:58:21.231Z,7.10
2023-02-11T19:00:49.183Z,13.13
2023-02-11T19:03:15.825Z,12.10
2023-02-11T19:05:44.267Z,11.90
2023-02-11T19:08:11.137Z,12.33
2023-02-11T19:10:46.202Z,7.87
2023-02-11T19:13:13.864Z,11.13
2023-02-11T19:15:42.108Z,13.97
2023-02-11T19:18:08.584Z,11.03
2023-02-11T19:20:35.045Z,11.17
2023-02-11T19:23:01.523Z,9.80
2023-02-11T19:25:28.005Z,7.50
2023-02-11T19:27:54.483Z,8.73
2023-02-11T19:30:21.137Z,12.83
2023-02-11T19:32:52.470Z,8.63
2023-02-11T19:35:19.671Z,10.60
2023-02-11T19:37:46.152Z,9.33
2023-02-11T19:40:13.379Z,9.13
2023-02-11T19:42:39.842Z,8.93
2023-02-11T19:45:07.405Z,7.53
2023-02-11T19:47:34.423Z,7.23
2023-02-11T19:50:00.942Z,7.83
2023-02-11T19:52:27.480Z,8.37
2023-02-11T19:54:55.998Z,7.40
2023-02-11T19:57:22.441Z,8.37
2023-02-11T19:59:49.299Z,8.27
2023-02-11T20:02:15.890Z,7.33
2023-02-11T20:04:42.372Z,6.97
2023-02-11T20:07:08.822Z,7.00
2023-02-11T20:09:35.350Z,9.20
2023-02-11T20:12:01.844Z,8.47
2023-02-11T20:14:28.418Z,8.73
2023-02-11T20:16:56.969Z,10.23
2023-02-11T20:19:23.680Z,10.93
2023-02-11T20:21:55.821Z,9.83
2023-02-11T20:24:23.560Z,8.37
2023-02-11T20:26:51.647Z,9.73
2023-02-11T20:29:18.438Z,11.27
2023-02-11T20:31:45.282Z,11.57
2023-02-11T20:34:12.594Z,10.17
2023-02-11T20:36:40.294Z,9.40
2023-02-11T20:39:07.552Z,9.23
2023-02-11T20:41:38.725Z,13.00
2023-02-11T20:44:07.748Z,10.07
2023-02-11T20:46:34.997Z,12.40
2023-02-11T20:49:02.129Z,9.73
2023-02-11T20:51:31.549Z,8.33
2023-02-11T20:53:59.013Z,11.90
2023-02-11T20:56:31.515Z,10.50
2023-02-11T20:59:02.403Z,12.17
2023-02-11T21:01:35.140Z,16.90
2023-02-11T21:04:08.705Z,12.17
2023-02-11T21:06:38.248Z,11.83
2023-02-11T21:09:06.534Z,11.30
2023-02-11T21:11:33.305Z,15.37
2023-02-11T21:14:00.217Z,17.33
2023-02-11T21:16:27.258Z,20.23
2023-02-11T21:18:55.455Z,14.70
2023-02-11T21:21:22.166Z,16.40
2023-02-11T21:23:48.632Z,18.80
2023-02-11T21:26:17.133Z,21.97
2023-02-11T21:28:43.826Z,23.53
2023-02-11T21:31:21.265Z,17.27
2023-02-11T21:33:59.452Z,15.90
2023-02-11T21:36:27.576Z,16.23
2023-02-11T21:38:54.407Z,15.27
2023-02-11T21:41:25.003Z,10.33
2023-02-11T21:43:52.033Z,12.17
2023-02-11T21:46:19.652Z,18.27
2023-02-11T21:48:51.526Z,15.93
2023-02-11T21:51:20.792Z,12.83
2023-02-11T21:53:47.398Z,16.27
2023-02-11T21:56:16.637Z,15.30
2023-02-11T21:58:43.503Z,17.80
2023-02-11T22:01:18.362Z,18.17
2023-02-11T22:03:45.732Z,12.87
2023-02-11T22:06:14.690Z,15.70
2023-02-11T22:08:41.429Z,14.93
2023-02-11T22:11:11.448Z,17.00
2023-02-11T22:13:38.153Z,18.77
2023-02-11T22:16:07.217Z,15.00
2023-02-11T22:18:33.748Z,21.10
2023-02-11T22:21:08.919Z,15.77
2023-02-11T22:23:36.108Z,19.90
2023-02-11T22:26:14.639Z,19.27
2023-02-11T22:28:41.743Z,17.43
2023-02-11T22:31:13.378Z,16.83
2023-02-11T22:33:40.189Z,18.53
2023-02-11T22:36:09.288Z,16.00
2023-02-11T22:38:40.951Z,16.67
2023-02-11T22:41:10.177Z,10.83
2023-02-11T22:43:37.208Z,13.60
2023-02-11T22:46:05.352Z,18.13
2023-02-11T22:48:32.663Z,15.60
2023-02-11T22:51:11.442Z,12.37
2023-02-11T22:53:37.995Z,12.67
2023-02-11T22:56:07.182Z,12.10
2023-02-11T22:58:34.500Z,11.97
2023-02-11T23:01:01.472Z,10.10
2023-02-11T23:03:28.639Z,9.30
2023-02-11T23:05:55.508Z,8.27
2023-02-11T23:08:22.201Z,10.00
2023-02-11T23:10:49.305Z,9.13
2023-02-11T23:13:16.012Z,10.47
2023-02-11T23:15:43.944Z,9.00
2023-02-11T23:18:12.577Z,9.57
2023-02-11T23:20:41.273Z,9.07
2023-02-11T23:23:07.905Z,11.37
2023-02-11T23:25:34.824Z,9.03
2023-02-11T23:28:01.685Z,10.47
2023-02-11T23:30:28.762Z,12.33
2023-02-11T23:32:55.340Z,13.40
2023-02-11T23:35:24.923Z,10.67
2023-02-11T23:37:52.779Z,8.60
2023-02-11T23:40:20.762Z,8.60
2023-02-11T23:42:47.775Z,12.53
2023-02-11T23:45:14.849Z,8.63
2023-02-11T23:47:41.973Z,8.37
2023-02-11T23:50:09.703Z,9.30
2023-02-11T23:52:36.744Z,8.47
2023-02-11T23:55:03.687Z,6.20
2023-02-11T23:57:32.544Z,8.23
